sensor_id;sensor_type;location;lat;lon;timestamp;P1;durP1;ratioP1;P2;durP2;ratioP2
6791;SDS011;3433;48.730;9.108;2023-10-13T00:01:51;5.80;;;4.10;;
6791;SDS011;3433;48.730;9.108;2023-10-13T00:04:41;11.37;;;5.10;;
6791;SDS011;3433;48.730;9.108;2023-10-13T00:07:31;7.20;;;3.73;;
6791;SDS011;3433;48.730;9.108;2023-10-13T00:10:18;6.70;;;4.10;;
6791;SDS011;3433;48.730;9.108;2023-10-13T00:13:06;9.30;;;4.60;;
6791;SDS011;3433;48.730;9.108;2023-10-13T00:15:58;6.67;;;3.60;;
6791;SDS011;3433;48.730;9.108;2023-10-13T00:18:48;6.20;;;4.47;;
6791;SDS011;3433;48.730;9.108;2023-10-13T00:21:41;8.90;;;3.73;;
6791;SDS011;3433;48.730;9.108;2023-10-13T00:24:28;6.57;;;4.37;;
6791;SDS011;3433;48.730;9.108;2023-10-13T00:27:27;7.20;;;3.63;;
6791;SDS011;3433;48.730;9.108;2023-10-13T00:30:18;10.23;;;4.50;;
6791;SDS011;3433;48.730;9.108;2023-10-13T00:33:18;8.23;;;4.00;;
6791;SDS011;3433;48.730;9.108;2023-10-13T00:36:08;7.10;;;3.70;;
6791;SDS011;3433;48.730;9.108;2023-10-13T00:42:15;4.93;;;3.80;;
6791;SDS011;3433;48.730;9.108;2023-10-13T00:45:06;9.00;;;4.60;;
6791;SDS011;3433;48.730;9.108;2023-10-13T00:47:53;5.10;;;4.03;;
6791;SDS011;3433;48.730;9.108;2023-10-13T00:50:46;5.40;;;4.10;;
6791;SDS011;3433;48.730;9.108;2023-10-13T00:53:36;6.27;;;3.87;;
6791;SDS011;3433;48.730;9.108;2023-10-13T00:56:32;10.67;;;4.90;;
6791;SDS011;3433;48.730;9.108;2023-10-13T00:59:19;12.37;;;6.20;;
6791;SDS011;3433;48.730;9.108;2023-10-13T01:02:11;7.60;;;4.70;;
6791;SDS011;3433;48.730;9.108;2023-10-13T01:05:23;5.80;;;3.80;;
6791;SDS011;3433;48.730;9.108;2023-10-13T01:08:12;8.27;;;4.30;;
6791;SDS011;3433;48.730;9.108;2023-10-13T01:11:00;8.80;;;4.37;;
6791;SDS011;3433;48.730;9.108;2023-10-13T01:13:48;5.70;;;4.17;;
6791;SDS011;3433;48.730;9.108;2023-10-13T01:16:44;5.93;;;4.33;;
6791;SDS011;3433;48.730;9.108;2023-10-13T01:19:43;8.30;;;4.10;;
6791;SDS011;3433;48.730;9.108;2023-10-13T01:22:31;11.30;;;4.20;;
6791;SDS011;3433;48.730;9.108;2023-10-13T01:25:26;8.83;;;3.50;;
6791;SDS011;3433;48.730;9.108;2023-10-13T01:28:13;7.90;;;4.33;;
6791;SDS011;3433;48.730;9.108;2023-10-13T01:31:08;8.50;;;4.60;;
6791;SDS011;3433;48.730;9.108;2023-10-13T01:33:59;8.37;;;4.30;;
6791;SDS011;3433;48.730;9.108;2023-10-13T01:36:52;6.50;;;5.00;;
6791;SDS011;3433;48.730;9.108;2023-10-13T01:39:42;8.70;;;4.37;;
6791;SDS011;3433;48.730;9.108;2023-10-13T01:42:48;7.20;;;4.63;;
6791;SDS011;3433;48.730;9.108;2023-10-13T01:45:43;10.50;;;6.63;;
6791;SDS011;3433;48.730;9.108;2023-10-13T01:48:48;4.83;;;3.70;;
6791;SDS011;3433;48.730;9.108;2023-10-13T01:51:36;6.90;;;5.00;;
6791;SDS011;3433;48.730;9.108;2023-10-13T01:54:25;8.00;;;4.63;;
6791;SDS011;3433;48.730;9.108;2023-10-13T01:57:13;6.53;;;4.80;;
6791;SDS011;3433;48.730;9.108;2023-10-13T02:00:05;5.87;;;3.97;;
6791;SDS011;3433;48.730;9.108;2023-10-13T02:03:04;9.33;;;4.50;;
6791;SDS011;3433;48.730;9.108;2023-10-13T02:06:08;8.63;;;4.57;;
6791;SDS011;3433;48.730;9.108;2023-10-13T02:09:04;4.90;;;4.03;;
6791;SDS011;3433;48.730;9.108;2023-10-13T02:12:00;10.03;;;4.77;;
6791;SDS011;3433;48.730;9.108;2023-10-13T02:14:46;6.23;;;4.03;;
6791;SDS011;3433;48.730;9.108;2023-10-13T02:17:45;7.83;;;4.47;;
6791;SDS011;3433;48.730;9.108;2023-10-13T02:20:48;5.40;;;4.57;;
6791;SDS011;3433;48.730;9.108;2023-10-13T02:23:40;7.07;;;5.10;;
6791;SDS011;3433;48.730;9.108;2023-10-13T02:26:31;11.40;;;5.00;;
6791;SDS011;3433;48.730;9.108;2023-10-13T02:29:24;5.90;;;4.00;;
6791;SDS011;3433;48.730;9.108;2023-10-13T02:32:14;10.40;;;4.83;;
6791;SDS011;3433;48.730;9.108;2023-10-13T02:35:08;7.83;;;4.23;;
6791;SDS011;3433;48.730;9.108;2023-10-13T02:38:01;5.83;;;4.63;;
6791;SDS011;3433;48.730;9.108;2023-10-13T02:40:56;7.47;;;5.00;;
6791;SDS011;3433;48.730;9.108;2023-10-13T02:43:51;7.27;;;4.77;;
6791;SDS011;3433;48.730;9.108;2023-10-13T02:46:41;8.33;;;4.40;;
6791;SDS011;3433;48.730;9.108;2023-10-13T02:49:29;8.53;;;4.87;;
6791;SDS011;3433;48.730;9.108;2023-10-13T02:52:21;5.13;;;4.40;;
6791;SDS011;3433;48.730;9.108;2023-10-13T02:55:25;7.77;;;4.50;;
6791;SDS011;3433;48.730;9.108;2023-10-13T02:58:13;5.83;;;4.50;;
6791;SDS011;3433;48.730;9.108;2023-10-13T03:01:07;5.83;;;4.70;;
6791;SDS011;3433;48.730;9.108;2023-10-13T03:04:04;8.60;;;4.57;;
6791;SDS011;3433;48.730;9.108;2023-10-13T03:06:55;6.10;;;4.53;;
6791;SDS011;3433;48.730;9.108;2023-10-13T03:09:46;6.90;;;4.90;;
6791;SDS011;3433;48.730;9.108;2023-10-13T03:12:36;9.27;;;5.20;;
6791;SDS011;3433;48.730;9.108;2023-10-13T03:15:27;9.70;;;4.70;;
6791;SDS011;3433;48.730;9.108;2023-10-13T03:18:20;13.30;;;4.80;;
6791;SDS011;3433;48.730;9.108;2023-10-13T03:21:14;13.90;;;4.53;;
6791;SDS011;3433;48.730;9.108;2023-10-13T03:24:13;6.90;;;4.80;;
6791;SDS011;3433;48.730;9.108;2023-10-13T03:27:01;8.70;;;4.60;;
6791;SDS011;3433;48.730;9.108;2023-10-13T03:29:54;6.47;;;5.07;;
6791;SDS011;3433;48.730;9.108;2023-10-13T03:32:41;6.53;;;4.37;;
6791;SDS011;3433;48.730;9.108;2023-10-13T03:35:32;7.30;;;4.83;;
6791;SDS011;3433;48.730;9.108;2023-10-13T03:38:26;8.10;;;4.40;;
6791;SDS011;3433;48.730;9.108;2023-10-13T03:41:13;7.97;;;4.37;;
6791;SDS011;3433;48.730;9.108;2023-10-13T03:44:07;12.83;;;4.63;;
6791;SDS011;3433;48.730;9.108;2023-10-13T03:46:59;6.33;;;3.90;;
6791;SDS011;3433;48.730;9.108;2023-10-13T03:50:03;8.70;;;4.97;;
6791;SDS011;3433;48.730;9.108;2023-10-13T03:53:01;7.30;;;4.50;;
6791;SDS011;3433;48.730;9.108;2023-10-13T03:55:52;5.33;;;4.30;;
6791;SDS011;3433;48.730;9.108;2023-10-13T03:58:53;9.33;;;4.73;;
6791;SDS011;3433;48.730;9.108;2023-10-13T04:01:45;7.07;;;4.37;;
6791;SDS011;3433;48.730;9.108;2023-10-13T04:04:43;8.77;;;4.60;;
6791;SDS011;3433;48.730;9.108;2023-10-13T04:07:34;8.30;;;4.20;;
6791;SDS011;3433;48.730;9.108;2023-10-13T04:10:48;7.43;;;4.27;;
6791;SDS011;3433;48.730;9.108;2023-10-13T04:14:07;7.30;;;4.40;;
6791;SDS011;3433;48.730;9.108;2023-10-13T04:17:10;9.23;;;4.93;;
6791;SDS011;3433;48.730;9.108;2023-10-13T04:20:00;6.53;;;4.27;;
6791;SDS011;3433;48.730;9.108;2023-10-13T04:23:05;8.20;;;5.07;;
6791;SDS011;3433;48.730;9.108;2023-10-13T04:26:07;8.30;;;5.07;;
6791;SDS011;3433;48.730;9.108;2023-10-13T04:29:06;8.07;;;4.87;;
6791;SDS011;3433;48.730;9.108;2023-10-13T04:32:14;12.23;;;5.53;;
6791;SDS011;3433;48.730;9.108;2023-10-13T04:35:13;10.33;;;4.40;;
6791;SDS011;3433;48.730;9.108;2023-10-13T04:38:06;5.50;;;4.30;;
6791;SDS011;3433;48.730;9.108;2023-10-13T04:41:05;5.67;;;4.50;;
6791;SDS011;3433;48.730;9.108;2023-10-13T04:44:08;12.17;;;4.83;;
6791;SDS011;3433;48.730;9.108;2023-10-13T04:47:02;7.93;;;4.23;;
6791;SDS011;3433;48.730;9.108;2023-10-13T04:50:03;6.67;;;4.47;;
6791;SDS011;3433;48.730;9.108;2023-10-13T04:53:07;11.30;;;4.90;;
6791;SDS011;3433;48.730;9.108;2023-10-13T04:56:12;9.90;;;4.20;;
6791;SDS011;3433;48.730;9.108;2023-10-13T04:59:13;7.47;;;4.50;;
6791;SDS011;3433;48.730;9.108;2023-10-13T05:02:22;7.37;;;4.30;;
6791;SDS011;3433;48.730;9.108;2023-10-13T05:05:42;8.37;;;4.40;;
6791;SDS011;3433;48.730;9.108;2023-10-13T05:08:59;10.97;;;4.40;;
6791;SDS011;3433;48.730;9.108;2023-10-13T05:12:06;5.40;;;4.13;;
6791;SDS011;3433;48.730;9.108;2023-10-13T05:15:10;9.27;;;4.30;;
6791;SDS011;3433;48.730;9.108;2023-10-13T05:18:16;8.50;;;4.40;;
6791;SDS011;3433;48.730;9.108;2023-10-13T05:21:21;7.20;;;4.67;;
6791;SDS011;3433;48.730;9.108;2023-10-13T05:24:26;7.80;;;4.40;;
6791;SDS011;3433;48.730;9.108;2023-10-13T05:27:32;10.07;;;4.20;;
6791;SDS011;3433;48.730;9.108;2023-10-13T05:30:37;6.30;;;4.10;;
6791;SDS011;3433;48.730;9.108;2023-10-13T05:33:43;7.67;;;4.10;;
6791;SDS011;3433;48.730;9.108;2023-10-13T05:36:47;7.80;;;4.20;;
6791;SDS011;3433;48.730;9.108;2023-10-13T05:39:52;9.50;;;4.97;;
6791;SDS011;3433;48.730;9.108;2023-10-13T05:42:57;6.70;;;5.00;;
6791;SDS011;3433;48.730;9.108;2023-10-13T05:46:02;11.13;;;4.70;;
6791;SDS011;3433;48.730;9.108;2023-10-13T05:49:08;5.43;;;4.60;;
6791;SDS011;3433;48.730;9.108;2023-10-13T05:52:12;8.97;;;4.73;;
6791;SDS011;3433;48.730;9.108;2023-10-13T05:55:17;6.57;;;4.30;;
6791;SDS011;3433;48.730;9.108;2023-10-13T05:58:21;8.43;;;4.47;;
6791;SDS011;3433;48.730;9.108;2023-10-13T06:01:26;8.03;;;4.87;;
6791;SDS011;3433;48.730;9.108;2023-10-13T06:04:32;7.77;;;4.60;;
6791;SDS011;3433;48.730;9.108;2023-10-13T06:07:48;11.27;;;4.87;;
6791;SDS011;3433;48.730;9.108;2023-10-13T06:11:00;7.40;;;4.07;;
6791;SDS011;3433;48.730;9.108;2023-10-13T06:14:05;9.30;;;4.87;;
6791;SDS011;3433;48.730;9.108;2023-10-13T06:17:10;13.43;;;6.50;;
6791;SDS011;3433;48.730;9.108;2023-10-13T06:20:24;14.07;;;4.97;;
6791;SDS011;3433;48.730;9.108;2023-10-13T06:23:28;75.20;;;11.17;;
6791;SDS011;3433;48.730;9.108;2023-10-13T06:26:33;14.57;;;5.80;;
6791;SDS011;3433;48.730;9.108;2023-10-13T06:29:37;9.33;;;4.50;;
6791;SDS011;3433;48.730;9.108;2023-10-13T06:32:26;6.53;;;4.90;;
6791;SDS011;3433;48.730;9.108;2023-10-13T06:35:13;14.53;;;4.30;;
6791;SDS011;3433;48.730;9.108;2023-10-13T06:38:09;7.63;;;4.40;;
6791;SDS011;3433;48.730;9.108;2023-10-13T06:41:06;13.80;;;5.23;;
6791;SDS011;3433;48.730;9.108;2023-10-13T06:43:54;7.80;;;4.67;;
6791;SDS011;3433;48.730;9.108;2023-10-13T06:46:45;7.53;;;4.30;;
6791;SDS011;3433;48.730;9.108;2023-10-13T06:49:35;9.10;;;4.30;;
6791;SDS011;3433;48.730;9.108;2023-10-13T06:52:24;7.90;;;4.10;;
6791;SDS011;3433;48.730;9.108;2023-10-13T06:55:16;11.20;;;5.10;;
6791;SDS011;3433;48.730;9.108;2023-10-13T06:58:09;11.63;;;4.80;;
6791;SDS011;3433;48.730;9.108;2023-10-13T07:00:59;7.80;;;3.87;;
6791;SDS011;3433;48.730;9.108;2023-10-13T07:03:47;6.50;;;4.07;;
6791;SDS011;3433;48.730;9.108;2023-10-13T07:06:39;6.03;;;4.63;;
6791;SDS011;3433;48.730;9.108;2023-10-13T07:09:33;9.10;;;5.10;;
6791;SDS011;3433;48.730;9.108;2023-10-13T07:12:27;9.10;;;4.80;;
6791;SDS011;3433;48.730;9.108;2023-10-13T07:15:18;6.93;;;4.00;;
6791;SDS011;3433;48.730;9.108;2023-10-13T07:18:05;6.80;;;4.20;;
6791;SDS011;3433;48.730;9.108;2023-10-13T07:20:53;10.27;;;4.40;;
6791;SDS011;3433;48.730;9.108;2023-10-13T07:23:43;7.40;;;3.93;;
6791;SDS011;3433;48.730;9.108;2023-10-13T07:26:45;10.50;;;4.50;;
6791;SDS011;3433;48.730;9.108;2023-10-13T07:29:44;10.63;;;4.50;;
6791;SDS011;3433;48.730;9.108;2023-10-13T07:32:31;7.57;;;4.40;;
6791;SDS011;3433;48.730;9.108;2023-10-13T07:35:19;7.60;;;4.00;;
6791;SDS011;3433;48.730;9.108;2023-10-13T07:38:10;12.00;;;3.90;;
6791;SDS011;3433;48.730;9.108;2023-10-13T07:40:58;8.20;;;3.77;;
6791;SDS011;3433;48.730;9.108;2023-10-13T07:43:52;6.87;;;3.90;;
6791;SDS011;3433;48.730;9.108;2023-10-13T07:46:44;9.33;;;4.50;;
6791;SDS011;3433;48.730;9.108;2023-10-13T07:49:32;14.03;;;4.00;;
6791;SDS011;3433;48.730;9.108;2023-10-13T07:52:23;6.50;;;4.20;;
6791;SDS011;3433;48.730;9.108;2023-10-13T07:55:21;6.07;;;3.70;;
6791;SDS011;3433;48.730;9.108;2023-10-13T07:58:08;8.33;;;3.97;;
6791;SDS011;3433;48.730;9.108;2023-10-13T08:00:57;11.23;;;4.20;;
6791;SDS011;3433;48.730;9.108;2023-10-13T08:03:54;8.30;;;3.83;;
6791;SDS011;3433;48.730;9.108;2023-10-13T08:06:56;8.60;;;3.70;;
6791;SDS011;3433;48.730;9.108;2023-10-13T08:09:57;8.17;;;3.53;;
6791;SDS011;3433;48.730;9.108;2023-10-13T08:12:44;8.23;;;3.33;;
6791;SDS011;3433;48.730;9.108;2023-10-13T08:15:31;9.17;;;3.30;;
6791;SDS011;3433;48.730;9.108;2023-10-13T08:18:19;8.60;;;3.57;;
6791;SDS011;3433;48.730;9.108;2023-10-13T08:21:16;7.07;;;3.87;;
6791;SDS011;3433;48.730;9.108;2023-10-13T08:24:08;7.53;;;3.80;;
6791;SDS011;3433;48.730;9.108;2023-10-13T08:27:00;8.30;;;3.80;;
6791;SDS011;3433;48.730;9.108;2023-10-13T08:30:17;10.67;;;3.83;;
6791;SDS011;3433;48.730;9.108;2023-10-13T08:33:14;9.30;;;4.03;;
6791;SDS011;3433;48.730;9.108;2023-10-13T08:36:09;8.93;;;5.20;;
6791;SDS011;3433;48.730;9.108;2023-10-13T08:39:12;5.60;;;3.17;;
6791;SDS011;3433;48.730;9.108;2023-10-13T08:42:29;7.60;;;2.97;;
6791;SDS011;3433;48.730;9.108;2023-10-13T08:45:38;6.83;;;3.80;;
6791;SDS011;3433;48.730;9.108;2023-10-13T08:48:43;8.83;;;3.60;;
6791;SDS011;3433;48.730;9.108;2023-10-13T08:51:35;7.30;;;3.40;;
6791;SDS011;3433;48.730;9.108;2023-10-13T08:54:36;10.43;;;4.10;;
6791;SDS011;3433;48.730;9.108;2023-10-13T08:57:31;8.07;;;4.07;;
6791;SDS011;3433;48.730;9.108;2023-10-13T09:00:20;8.30;;;3.63;;
6791;SDS011;3433;48.730;9.108;2023-10-13T09:03:33;9.60;;;3.67;;
6791;SDS011;3433;48.730;9.108;2023-10-13T09:06:26;12.53;;;3.80;;
6791;SDS011;3433;48.730;9.108;2023-10-13T09:09:13;9.33;;;4.20;;
6791;SDS011;3433;48.730;9.108;2023-10-13T09:12:21;7.97;;;2.97;;
6791;SDS011;3433;48.730;9.108;2023-10-13T09:15:11;6.30;;;3.10;;
6791;SDS011;3433;48.730;9.108;2023-10-13T09:18:09;5.47;;;3.77;;
6791;SDS011;3433;48.730;9.108;2023-10-13T09:20:59;8.90;;;3.77;;
6791;SDS011;3433;48.730;9.108;2023-10-13T09:24:08;6.40;;;3.30;;
6791;SDS011;3433;48.730;9.108;2023-10-13T09:27:07;7.47;;;3.30;;
6791;SDS011;3433;48.730;9.108;2023-10-13T09:30:00;5.73;;;3.77;;
6791;SDS011;3433;48.730;9.108;2023-10-13T09:32:59;7.73;;;3.60;;
6791;SDS011;3433;48.730;9.108;2023-10-13T09:35:48;7.90;;;4.10;;
6791;SDS011;3433;48.730;9.108;2023-10-13T09:38:35;8.63;;;3.90;;
6791;SDS011;3433;48.730;9.108;2023-10-13T09:41:25;8.50;;;3.67;;
6791;SDS011;3433;48.730;9.108;2023-10-13T09:44:17;12.43;;;3.50;;
6791;SDS011;3433;48.730;9.108;2023-10-13T09:47:09;16.17;;;3.90;;
6791;SDS011;3433;48.730;9.108;2023-10-13T09:50:02;7.93;;;3.40;;
6791;SDS011;3433;48.730;9.108;2023-10-13T09:53:09;11.00;;;3.33;;
6791;SDS011;3433;48.730;9.108;2023-10-13T09:56:01;6.03;;;3.30;;
6791;SDS011;3433;48.730;9.108;2023-10-13T09:59:06;7.70;;;3.73;;
6791;SDS011;3433;48.730;9.108;2023-10-13T10:01:58;5.33;;;3.30;;
6791;SDS011;3433;48.730;9.108;2023-10-13T10:04:55;7.90;;;3.43;;
6791;SDS011;3433;48.730;9.108;2023-10-13T10:08:04;7.90;;;3.70;;
6791;SDS011;3433;48.730;9.108;2023-10-13T10:10:56;9.37;;;3.50;;
6791;SDS011;3433;48.730;9.108;2023-10-13T10:13:47;4.33;;;3.57;;
6791;SDS011;3433;48.730;9.108;2023-10-13T10:16:45;6.07;;;3.00;;
6791;SDS011;3433;48.730;9.108;2023-10-13T10:19:45;9.30;;;3.70;;
6791;SDS011;3433;48.730;9.108;2023-10-13T10:22:40;9.17;;;3.40;;
6791;SDS011;3433;48.730;9.108;2023-10-13T10:25:34;10.37;;;3.60;;
6791;SDS011;3433;48.730;9.108;2023-10-13T10:28:24;7.20;;;3.60;;
6791;SDS011;3433;48.730;9.108;2023-10-13T10:31:30;8.77;;;3.30;;
6791;SDS011;3433;48.730;9.108;2023-10-13T10:34:20;5.77;;;3.43;;
6791;SDS011;3433;48.730;9.108;2023-10-13T10:37:17;8.27;;;4.17;;
6791;SDS011;3433;48.730;9.108;2023-10-13T10:40:08;4.97;;;3.17;;
6791;SDS011;3433;48.730;9.108;2023-10-13T10:43:05;7.63;;;3.13;;
6791;SDS011;3433;48.730;9.108;2023-10-13T10:45:54;6.33;;;3.17;;
6791;SDS011;3433;48.730;9.108;2023-10-13T10:48:45;7.10;;;3.33;;
6791;SDS011;3433;48.730;9.108;2023-10-13T10:51:33;6.80;;;3.43;;
6791;SDS011;3433;48.730;9.108;2023-10-13T10:54:29;7.53;;;3.60;;
6791;SDS011;3433;48.730;9.108;2023-10-13T10:57:18;5.93;;;2.93;;
6791;SDS011;3433;48.730;9.108;2023-10-13T11:00:06;3.60;;;3.23;;
6791;SDS011;3433;48.730;9.108;2023-10-13T11:03:11;6.83;;;3.53;;
6791;SDS011;3433;48.730;9.108;2023-10-13T11:05:58;4.40;;;2.73;;
6791;SDS011;3433;48.730;9.108;2023-10-13T11:08:48;6.23;;;3.20;;
6791;SDS011;3433;48.730;9.108;2023-10-13T11:11:38;11.40;;;4.40;;
6791;SDS011;3433;48.730;9.108;2023-10-13T11:14:30;8.93;;;3.53;;
6791;SDS011;3433;48.730;9.108;2023-10-13T11:17:20;7.30;;;3.47;;
6791;SDS011;3433;48.730;9.108;2023-10-13T11:20:12;6.97;;;3.40;;
6791;SDS011;3433;48.730;9.108;2023-10-13T11:23:10;11.23;;;4.40;;
6791;SDS011;3433;48.730;9.108;2023-10-13T11:25:57;11.50;;;4.20;;
6791;SDS011;3433;48.730;9.108;2023-10-13T11:28:49;7.10;;;4.13;;
6791;SDS011;3433;48.730;9.108;2023-10-13T11:31:38;7.17;;;2.97;;
6791;SDS011;3433;48.730;9.108;2023-10-13T11:34:27;8.47;;;4.50;;
6791;SDS011;3433;48.730;9.108;2023-10-13T11:37:24;15.77;;;4.60;;
6791;SDS011;3433;48.730;9.108;2023-10-13T11:40:24;9.70;;;4.17;;
6791;SDS011;3433;48.730;9.108;2023-10-13T11:43:25;6.90;;;3.87;;
6791;SDS011;3433;48.730;9.108;2023-10-13T11:46:12;9.60;;;4.03;;
6791;SDS011;3433;48.730;9.108;2023-10-13T11:49:02;10.07;;;3.90;;
6791;SDS011;3433;48.730;9.108;2023-10-13T11:51:51;7.30;;;3.47;;
6791;SDS011;3433;48.730;9.108;2023-10-13T11:54:47;10.13;;;3.50;;
6791;SDS011;3433;48.730;9.108;2023-10-13T11:57:34;6.17;;;3.80;;
6791;SDS011;3433;48.730;9.108;2023-10-13T12:00:21;8.77;;;3.50;;
6791;SDS011;3433;48.730;9.108;2023-10-13T12:03:32;8.97;;;4.23;;
6791;SDS011;3433;48.730;9.108;2023-10-13T12:06:47;5.13;;;3.13;;
6791;SDS011;3433;48.730;9.108;2023-10-13T12:09:51;8.90;;;3.33;;
6791;SDS011;3433;48.730;9.108;2023-10-13T12:12:51;10.00;;;3.50;;
6791;SDS011;3433;48.730;9.108;2023-10-13T12:15:40;8.63;;;3.90;;
6791;SDS011;3433;48.730;9.108;2023-10-13T12:18:37;6.83;;;3.20;;
6791;SDS011;3433;48.730;9.108;2023-10-13T12:21:26;7.90;;;4.20;;
6791;SDS011;3433;48.730;9.108;2023-10-13T12:24:16;9.67;;;3.87;;
6791;SDS011;3433;48.730;9.108;2023-10-13T12:27:16;5.93;;;4.07;;
6791;SDS011;3433;48.730;9.108;2023-10-13T12:30:09;8.63;;;3.70;;
6791;SDS011;3433;48.730;9.108;2023-10-13T12:32:59;6.37;;;3.40;;
6791;SDS011;3433;48.730;9.108;2023-10-13T12:35:57;10.67;;;3.27;;
6791;SDS011;3433;48.730;9.108;2023-10-13T12:38:54;5.27;;;3.30;;
6791;SDS011;3433;48.730;9.108;2023-10-13T12:42:03;8.10;;;3.73;;
6791;SDS011;3433;48.730;9.108;2023-10-13T12:45:07;8.33;;;3.30;;
6791;SDS011;3433;48.730;9.108;2023-10-13T12:48:12;9.87;;;3.57;;
6791;SDS011;3433;48.730;9.108;2023-10-13T12:51:28;7.17;;;3.87;;
6791;SDS011;3433;48.730;9.108;2023-10-13T12:54:36;6.20;;;3.30;;
6791;SDS011;3433;48.730;9.108;2023-10-13T12:57:25;4.53;;;2.83;;
6791;SDS011;3433;48.730;9.108;2023-10-13T13:00:13;5.57;;;3.23;;
6791;SDS011;3433;48.730;9.108;2023-10-13T13:03:09;10.57;;;3.60;;
6791;SDS011;3433;48.730;9.108;2023-10-13T13:05:59;9.20;;;3.13;;
6791;SDS011;3433;48.730;9.108;2023-10-13T13:08:52;6.00;;;4.17;;
6791;SDS011;3433;48.730;9.108;2023-10-13T13:11:40;7.10;;;3.30;;
6791;SDS011;3433;48.730;9.108;2023-10-13T13:14:29;5.37;;;3.80;;
6791;SDS011;3433;48.730;9.108;2023-10-13T13:17:16;6.27;;;2.83;;
6791;SDS011;3433;48.730;9.108;2023-10-13T13:20:03;11.93;;;3.93;;
6791;SDS011;3433;48.730;9.108;2023-10-13T13:22:56;8.43;;;3.80;;
6791;SDS011;3433;48.730;9.108;2023-10-13T13:25:48;7.10;;;3.43;;
6791;SDS011;3433;48.730;9.108;2023-10-13T13:28:35;6.67;;;3.50;;
6791;SDS011;3433;48.730;9.108;2023-10-13T13:31:24;5.00;;;3.33;;
6791;SDS011;3433;48.730;9.108;2023-10-13T13:34:14;7.67;;;3.33;;
6791;SDS011;3433;48.730;9.108;2023-10-13T13:37:02;4.10;;;3.30;;
6791;SDS011;3433;48.730;9.108;2023-10-13T13:39:49;6.23;;;3.17;;
6791;SDS011;3433;48.730;9.108;2023-10-13T13:42:38;4.93;;;3.00;;
6791;SDS011;3433;48.730;9.108;2023-10-13T13:45:26;8.80;;;3.53;;
6791;SDS011;3433;48.730;9.108;2023-10-13T13:48:15;6.90;;;3.20;;
6791;SDS011;3433;48.730;9.108;2023-10-13T13:51:05;9.43;;;3.53;;
6791;SDS011;3433;48.730;9.108;2023-10-13T13:53:59;9.80;;;3.77;;
6791;SDS011;3433;48.730;9.108;2023-10-13T13:56:51;4.17;;;2.87;;
6791;SDS011;3433;48.730;9.108;2023-10-13T13:59:38;5.13;;;3.17;;
6791;SDS011;3433;48.730;9.108;2023-10-13T14:02:29;8.27;;;4.03;;
6791;SDS011;3433;48.730;9.108;2023-10-13T14:05:21;6.40;;;3.17;;
6791;SDS011;3433;48.730;9.108;2023-10-13T14:08:09;4.57;;;3.30;;
6791;SDS011;3433;48.730;9.108;2023-10-13T14:11:00;3.90;;;3.00;;
6791;SDS011;3433;48.730;9.108;2023-10-13T14:14:16;5.83;;;2.93;;
6791;SDS011;3433;48.730;9.108;2023-10-13T14:17:16;5.27;;;2.70;;
6791;SDS011;3433;48.730;9.108;2023-10-13T14:20:03;3.80;;;3.37;;
6791;SDS011;3433;48.730;9.108;2023-10-13T14:23:02;5.60;;;3.10;;
6791;SDS011;3433;48.730;9.108;2023-10-13T14:25:52;5.23;;;2.97;;
6791;SDS011;3433;48.730;9.108;2023-10-13T14:28:41;4.00;;;3.10;;
6791;SDS011;3433;48.730;9.108;2023-10-13T14:31:37;5.70;;;2.97;;
6791;SDS011;3433;48.730;9.108;2023-10-13T14:34:24;3.10;;;2.70;;
6791;SDS011;3433;48.730;9.108;2023-10-13T14:37:12;4.20;;;2.90;;
6791;SDS011;3433;48.730;9.108;2023-10-13T14:40:00;5.07;;;2.77;;
6791;SDS011;3433;48.730;9.108;2023-10-13T14:42:48;7.13;;;2.90;;
6791;SDS011;3433;48.730;9.108;2023-10-13T14:45:35;5.50;;;2.93;;
6791;SDS011;3433;48.730;9.108;2023-10-13T14:48:23;5.00;;;2.50;;
6791;SDS011;3433;48.730;9.108;2023-10-13T14:51:11;4.20;;;2.90;;
6791;SDS011;3433;48.730;9.108;2023-10-13T14:53:59;6.00;;;3.07;;
6791;SDS011;3433;48.730;9.108;2023-10-13T14:56:47;4.40;;;2.23;;
6791;SDS011;3433;48.730;9.108;2023-10-13T14:59:35;4.07;;;2.40;;
6791;SDS011;3433;48.730;9.108;2023-10-13T15:02:23;3.03;;;2.60;;
6791;SDS011;3433;48.730;9.108;2023-10-13T15:05:11;3.73;;;2.67;;
6791;SDS011;3433;48.730;9.108;2023-10-13T15:08:02;4.60;;;2.70;;
6791;SDS011;3433;48.730;9.108;2023-10-13T15:10:51;3.90;;;2.73;;
6791;SDS011;3433;48.730;9.108;2023-10-13T15:13:40;4.67;;;2.50;;
6791;SDS011;3433;48.730;9.108;2023-10-13T15:16:28;5.80;;;3.00;;
6791;SDS011;3433;48.730;9.108;2023-10-13T15:19:15;7.70;;;2.87;;
6791;SDS011;3433;48.730;9.108;2023-10-13T15:22:02;4.37;;;2.77;;
6791;SDS011;3433;48.730;9.108;2023-10-13T15:24:51;6.73;;;2.70;;
6791;SDS011;3433;48.730;9.108;2023-10-13T15:27:56;3.03;;;2.47;;
6791;SDS011;3433;48.730;9.108;2023-10-13T15:30:49;6.17;;;2.70;;
6791;SDS011;3433;48.730;9.108;2023-10-13T15:33:42;3.60;;;2.73;;
6791;SDS011;3433;48.730;9.108;2023-10-13T15:36:37;7.10;;;2.47;;
6791;SDS011;3433;48.730;9.108;2023-10-13T15:39:25;4.10;;;2.70;;
6791;SDS011;3433;48.730;9.108;2023-10-13T15:42:13;5.13;;;2.70;;
6791;SDS011;3433;48.730;9.108;2023-10-13T15:45:02;5.57;;;2.40;;
6791;SDS011;3433;48.730;9.108;2023-10-13T15:48:01;3.47;;;2.43;;
6791;SDS011;3433;48.730;9.108;2023-10-13T15:50:49;5.60;;;3.03;;
6791;SDS011;3433;48.730;9.108;2023-10-13T15:53:37;4.30;;;2.60;;
6791;SDS011;3433;48.730;9.108;2023-10-13T15:56:24;3.40;;;2.30;;
6791;SDS011;3433;48.730;9.108;2023-10-13T15:59:11;15.10;;;2.90;;
6791;SDS011;3433;48.730;9.108;2023-10-13T16:01:58;2.97;;;2.40;;
6791;SDS011;3433;48.730;9.108;2023-10-13T16:04:47;4.37;;;2.50;;
6791;SDS011;3433;48.730;9.108;2023-10-13T16:07:34;5.30;;;2.50;;
6791;SDS011;3433;48.730;9.108;2023-10-13T16:10:23;6.60;;;2.50;;
6791;SDS011;3433;48.730;9.108;2023-10-13T16:13:12;3.07;;;2.40;;
6791;SDS011;3433;48.730;9.108;2023-10-13T16:16:01;5.10;;;2.50;;
6791;SDS011;3433;48.730;9.108;2023-10-13T16:18:49;5.77;;;2.80;;
6791;SDS011;3433;48.730;9.108;2023-10-13T16:21:38;5.23;;;2.17;;
6791;SDS011;3433;48.730;9.108;2023-10-13T16:24:26;4.43;;;2.57;;
6791;SDS011;3433;48.730;9.108;2023-10-13T16:27:13;5.53;;;2.67;;
6791;SDS011;3433;48.730;9.108;2023-10-13T16:30:00;5.17;;;2.10;;
6791;SDS011;3433;48.730;9.108;2023-10-13T16:32:48;6.83;;;3.03;;
6791;SDS011;3433;48.730;9.108;2023-10-13T16:35:35;5.00;;;2.50;;
6791;SDS011;3433;48.730;9.108;2023-10-13T16:38:24;5.00;;;2.30;;
6791;SDS011;3433;48.730;9.108;2023-10-13T16:41:13;2.83;;;2.40;;
6791;SDS011;3433;48.730;9.108;2023-10-13T16:44:00;2.97;;;2.23;;
6791;SDS011;3433;48.730;9.108;2023-10-13T16:46:54;6.90;;;2.20;;
6791;SDS011;3433;48.730;9.108;2023-10-13T16:49:45;3.97;;;2.73;;
6791;SDS011;3433;48.730;9.108;2023-10-13T16:52:33;5.00;;;2.67;;
6791;SDS011;3433;48.730;9.108;2023-10-13T16:55:22;2.97;;;2.67;;
6791;SDS011;3433;48.730;9.108;2023-10-13T16:58:09;4.67;;;2.83;;
6791;SDS011;3433;48.730;9.108;2023-10-13T17:00:57;6.70;;;2.47;;
6791;SDS011;3433;48.730;9.108;2023-10-13T17:03:49;6.70;;;3.07;;
6791;SDS011;3433;48.730;9.108;2023-10-13T17:06:36;5.43;;;2.90;;
6791;SDS011;3433;48.730;9.108;2023-10-13T17:09:23;4.30;;;3.07;;
6791;SDS011;3433;48.730;9.108;2023-10-13T17:12:12;3.27;;;2.70;;
6791;SDS011;3433;48.730;9.108;2023-10-13T17:14:59;4.80;;;3.40;;
6791;SDS011;3433;48.730;9.108;2023-10-13T17:17:55;5.63;;;3.90;;
6791;SDS011;3433;48.730;9.108;2023-10-13T17:20:45;4.77;;;3.10;;
6791;SDS011;3433;48.730;9.108;2023-10-13T17:23:32;8.63;;;3.70;;
6791;SDS011;3433;48.730;9.108;2023-10-13T17:26:20;5.13;;;3.20;;
6791;SDS011;3433;48.730;9.108;2023-10-13T17:29:10;4.90;;;3.47;;
6791;SDS011;3433;48.730;9.108;2023-10-13T17:31:57;8.30;;;3.17;;
6791;SDS011;3433;48.730;9.108;2023-10-13T17:34:48;6.57;;;3.10;;
6791;SDS011;3433;48.730;9.108;2023-10-13T17:37:36;4.43;;;3.03;;
6791;SDS011;3433;48.730;9.108;2023-10-13T17:40:27;9.00;;;3.30;;
6791;SDS011;3433;48.730;9.108;2023-10-13T17:43:15;6.10;;;2.70;;
6791;SDS011;3433;48.730;9.108;2023-10-13T17:46:07;7.03;;;3.10;;
6791;SDS011;3433;48.730;9.108;2023-10-13T17:48:56;6.00;;;3.50;;
6791;SDS011;3433;48.730;9.108;2023-10-13T17:51:43;7.30;;;2.80;;
6791;SDS011;3433;48.730;9.108;2023-10-13T17:54:30;4.93;;;2.73;;
6791;SDS011;3433;48.730;9.108;2023-10-13T17:57:17;4.73;;;3.13;;
6791;SDS011;3433;48.730;9.108;2023-10-13T18:00:05;6.90;;;3.27;;
6791;SDS011;3433;48.730;9.108;2023-10-13T18:03:01;5.13;;;3.10;;